Time;durP1;ratioP1;P1;durP2;ratioP2;P2;SDS_P1;SDS_P2;PMS_P1;PMS_P2;Temp;Humidity;BMP_temperature;BMP_pressure;BME280_temperature;BME280_humidity;BME280_pressure;Samples;Min_cycle;Max_cycle;Signal;HPM_P1;HPM_P2
2021/01/12 00:02:09;;;;;;;2.33;0.80;;;;;;;9.59;100.00;101265.78;1838922;78;26217;-81
2021/01/12 00:04:39;;;;;;;2.00;0.70;;;;;;;9.63;100.00;101257.78;1839313;78;26204;-80
2021/01/12 00:07:09;;;;;;;1.97;0.70;;;;;;;9.60;100.00;101254.42;1838894;78;26315;-81
2021/01/12 00:09:39;;;;;;;2.70;0.90;;;;;;;9.62;100.00;101264.42;1839039;76;26256;-81
2021/01/12 00:12:10;;;;;;;1.03;0.53;;;;;;;9.66;100.00;101260.84;1838975;78;26294;-82
2021/01/12 00:14:40;;;;;;;0.70;0.43;;;;;;;9.69;100.00;101255.30;1838975;78;26233;-82
2021/01/12 00:17:10;;;;;;;1.73;0.70;;;;;;;9.70;100.00;101256.42;1838882;78;26250;-81
2021/01/12 00:19:40;;;;;;;1.20;0.60;;;;;;;9.70;100.00;101249.49;1839116;78;26229;-81
2021/01/12 00:22:14;;;;;;;1.20;0.70;;;;;;;9.71;100.00;101242.84;1839022;78;26237;-81
2021/01/12 00:24:45;;;;;;;1.10;0.50;;;;;;;9.68;100.00;101241.14;1839162;78;26726;-81
2021/01/12 00:27:17;;;;;;;2.60;0.73;;;;;;;9.69;100.00;101231.17;1838997;78;26225;-81
2021/01/12 00:29:47;;;;;;;3.40;0.80;;;;;;;9.74;100.00;101235.91;1838955;78;26252;-81
2021/01/12 00:32:18;;;;;;;0.93;0.57;;;;;;;9.71;100.00;101232.30;1839267;78;26232;-81
2021/01/12 00:34:48;;;;;;;0.90;0.40;;;;;;;9.73;100.00;101225.91;1839471;78;26274;-82
2021/01/12 00:37:25;;;;;;;0.43;0.43;;;;;;;9.78;100.00;101221.78;1839780;78;26228;-81
2021/01/12 00:39:56;;;;;;;0.70;0.40;;;;;;;9.74;100.00;101218.72;1838163;78;26730;-80
2021/01/12 00:42:26;;;;;;;1.07;0.47;;;;;;;9.72;100.00;101204.27;1838880;78;26777;-80
2021/01/12 00:44:56;;;;;;;0.73;0.50;;;;;;;9.71;100.00;101209.56;1838977;78;26292;-81
2021/01/12 00:47:27;;;;;;;1.17;0.40;;;;;;;9.77;100.00;101202.07;1838807;78;26264;-80
2021/01/12 00:49:57;;;;;;;0.63;0.50;;;;;;;9.73;100.00;101199.01;1839077;78;26205;-80
2021/01/12 00:52:27;;;;;;;1.43;0.50;;;;;;;9.67;100.00;101189.56;1838886;78;26252;-80
2021/01/12 00:54:57;;;;;;;0.73;0.30;;;;;;;9.70;100.00;101191.79;1839326;78;26287;-79
2021/01/12 00:57:27;;;;;;;0.40;0.40;;;;;;;9.68;100.00;101192.59;1838963;78;26268;-79
2021/01/12 00:59:57;;;;;;;0.83;0.30;;;;;;;9.70;100.00;101184.86;1838889;78;26451;-79
2021/01/12 01:02:27;;;;;;;1.40;0.47;;;;;;;9.71;100.00;101187.92;1839185;78;26241;-81
2021/01/12 01:04:57;;;;;;;2.70;0.40;;;;;;;9.69;100.00;101182.63;1838950;78;26716;-82
2021/01/12 01:07:27;;;;;;;0.93;0.40;;;;;;;9.67;100.00;101165.41;1838992;78;26281;-81
2021/01/12 01:09:57;;;;;;;0.97;0.37;;;;;;;9.70;100.00;101162.11;1838968;76;26337;-81
2021/01/12 01:12:27;;;;;;;0.33;0.30;;;;;;;9.70;100.00;101158.50;1838951;78;26285;-81
2021/01/12 01:14:57;;;;;;;0.30;0.30;;;;;;;9.69;100.00;101160.98;1839151;78;26251;-81
2021/01/12 01:17:27;;;;;;;0.77;0.23;;;;;;;9.70;100.00;101155.73;1839177;78;26825;-81
2021/01/12 01:19:56;;;;;;;0.43;0.23;;;;;;;9.70;100.00;101155.18;1839090;78;26366;-81
2021/01/12 01:22:27;;;;;;;1.70;0.37;;;;;;;9.74;100.00;101141.05;1839257;78;26386;-81
2021/01/12 01:24:57;;;;;;;1.43;0.43;;;;;;;9.75;100.00;101131.63;1838960;78;26419;-81
2021/01/12 01:27:26;;;;;;;1.23;0.20;;;;;;;9.78;100.00;101138.55;1838856;78;26712;-82
2021/01/12 01:29:56;;;;;;;0.20;0.20;;;;;;;9.75;100.00;101131.63;1838959;78;26798;-82
2021/01/12 01:32:26;;;;;;;0.60;0.20;;;;;;;9.78;100.00;101126.91;1839046;78;26774;-82
2021/01/12 01:34:56;;;;;;;1.87;0.30;;;;;;;9.77;100.00;101127.17;1838888;78;26353;-82
2021/01/12 01:37:26;;;;;;;0.57;0.37;;;;;;;9.77;100.00;101109.98;1839082;78;26328;-82
2021/01/12 01:39:55;;;;;;;0.40;0.20;;;;;;;9.79;100.00;101101.39;1838849;78;26237;-82
2021/01/12 01:42:25;;;;;;;1.30;0.20;;;;;;;9.72;100.00;101107.19;1838814;78;26248;-82
2021/01/12 01:44:57;;;;;;;1.33;0.40;;;;;;;9.76;100.00;101093.59;1838776;78;26245;-82
2021/01/12 01:47:27;;;;;;;0.63;0.20;;;;;;;9.79;100.00;101095.30;1838715;78;26740;-82
2021/01/12 01:49:56;;;;;;;0.23;0.20;;;;;;;9.80;100.00;101107.20;1838754;78;26285;-82
2021/01/12 01:52:28;;;;;;;0.57;0.20;;;;;;;9.78;100.00;101112.20;1838983;78;26349;-82
2021/01/12 01:54:59;;;;;;;0.77;0.20;;;;;;;9.80;100.00;101103.03;1838729;78;26331;-81
2021/01/12 01:57:29;;;;;;;1.20;0.10;;;;;;;9.82;100.00;101106.38;1839001;78;26215;-81
2021/01/12 01:59:59;;;;;;;1.17;0.30;;;;;;;9.79;100.00;101113.33;1838834;78;26292;-81
2021/01/12 02:02:29;;;;;;;0.80;0.30;;;;;;;9.83;100.00;101108.89;1838836;78;26720;-81
2021/01/12 02:05:02;;;;;;;0.10;0.10;;;;;;;9.77;100.00;101103.04;1838867;78;26238;-81
2021/01/12 02:07:33;;;;;;;2.10;0.70;;;;;;;9.79;100.00;101109.16;1838990;78;26207;-81
2021/01/12 02:10:04;;;;;;;1.70;0.20;;;;;;;9.79;100.00;101106.39;1838786;76;26833;-82
2021/01/12 02:12:37;;;;;;;1.07;0.20;;;;;;;9.77;100.00;101104.43;1838805;78;26224;-81
2021/01/12 02:15:10;;;;;;;0.67;0.27;;;;;;;9.74;100.00;101113.30;1838766;78;26366;-81
2021/01/12 02:17:43;;;;;;;0.20;0.20;;;;;;;9.74;100.00;101104.98;1838888;78;26336;-81
2021/01/12 02:20:16;;;;;;;1.13;0.37;;;;;;;9.75;100.00;101108.59;1838904;78;26229;-81
2021/01/12 02:22:50;;;;;;;0.83;0.30;;;;;;;9.77;100.00;101115.52;1838828;78;26288;-81
2021/01/12 02:25:21;;;;;;;0.43;0.30;;;;;;;9.74;100.00;101108.30;1839086;78;26237;-82
2021/01/12 02:27:53;;;;;;;1.20;0.30;;;;;;;9.75;100.00;101110.81;1838922;78;26237;-81
2021/01/12 02:30:23;;;;;;;0.67;0.30;;;;;;;9.73;100.00;101115.80;1838818;78;26237;-81
2021/01/12 02:32:55;;;;;;;0.10;0.10;;;;;;;9.72;100.00;101114.66;1838842;78;26727;-82
2021/01/12 02:35:27;;;;;;;0.70;0.27;;;;;;;9.70;100.00;101113.57;1838945;78;26226;-81
2021/01/12 02:37:58;;;;;;;1.60;0.30;;;;;;;9.69;100.00;101111.90;1838889;78;26288;-81
2021/01/12 02:40:28;;;;;;;0.77;0.20;;;;;;;9.71;100.00;101119.95;1838872;78;26326;-82
2021/01/12 02:42:58;;;;;;;1.20;0.20;;;;;;;9.76;100.00;101122.17;1838913;78;26205;-82
2021/01/12 02:45:30;;;;;;;0.40;0.40;;;;;;;9.76;100.00;101110.23;1838960;78;26221;-81
2021/01/12 02:48:00;;;;;;;0.20;0.20;;;;;;;9.76;100.00;101111.63;1839046;78;26200;-81
2021/01/12 02:57:16;;;;;;;0.80;0.30;;;;;;;9.78;100.00;101098.33;1838904;78;26233;-82
2021/01/12 02:59:46;;;;;;;2.00;0.40;;;;;;;9.77;100.00;101109.98;1838914;78;26717;-84
2021/01/12 03:02:16;;;;;;;0.43;0.30;;;;;;;9.77;100.00;101089.72;1838817;78;26672;-83
2021/01/12 03:04:45;;;;;;;1.13;0.40;;;;;;;9.77;100.00;101091.94;1838811;78;26700;-83
2021/01/12 03:07:15;;;;;;;1.47;0.40;;;;;;;9.75;100.00;101091.40;1838782;78;26713;-83
2021/01/12 03:09:45;;;;;;;1.30;0.50;;;;;;;9.78;100.00;101087.23;1838915;78;26704;-82
2021/01/12 03:12:15;;;;;;;2.00;0.50;;;;;;;9.79;100.00;101087.52;1838739;76;26306;-83
2021/01/12 03:14:45;;;;;;;1.13;0.40;;;;;;;9.81;100.00;101072.80;1838853;78;26238;-82
2021/01/12 03:17:16;;;;;;;1.03;0.20;;;;;;;9.81;100.00;101081.96;1838773;78;26332;-81
2021/01/12 03:19:47;;;;;;;1.53;0.40;;;;;;;9.79;100.00;101081.42;1838828;78;26333;-81
2021/01/12 03:22:17;;;;;;;1.00;0.50;;;;;;;9.81;100.00;101075.58;1838960;78;26325;-82
2021/01/12 03:24:46;;;;;;;1.90;0.40;;;;;;;9.81;100.00;101067.25;1838881;78;26766;-82
2021/01/12 03:27:16;;;;;;;1.33;0.40;;;;;;;9.83;100.00;101065.89;1838932;78;26241;-82
2021/01/12 03:29:46;;;;;;;0.73;0.33;;;;;;;9.83;100.00;101067.83;1838918;78;26307;-82
2021/01/12 03:32:16;;;;;;;1.43;0.50;;;;;;;9.80;100.00;101069.20;1839024;78;26204;-83
2021/01/12 03:34:46;;;;;;;0.97;0.30;;;;;;;9.80;100.00;101056.70;1839004;78;26201;-82
2021/01/12 03:37:15;;;;;;;0.53;0.30;;;;;;;9.81;100.00;101057.55;1838886;78;26232;-82
2021/01/12 03:39:45;;;;;;;2.70;0.30;;;;;;;9.81;100.00;101054.22;1838811;78;26239;-81
2021/01/12 03:42:15;;;;;;;1.07;0.43;;;;;;;9.85;100.00;101051.17;1838798;78;26236;-82
2021/01/12 03:44:45;;;;;;;5.00;1.40;;;;;;;9.81;100.00;101052.00;1838854;78;26308;-83
2021/01/12 03:47:15;;;;;;;1.03;0.30;;;;;;;9.82;100.00;101037.02;1838843;78;26237;-83
2021/01/12 03:49:45;;;;;;;1.40;0.40;;;;;;;9.84;100.00;101045.34;1838800;78;26226;-83
2021/01/12 03:52:15;;;;;;;2.53;0.40;;;;;;;9.85;100.00;101038.69;1838900;78;26241;-83
2021/01/12 03:54:45;;;;;;;1.37;0.60;;;;;;;9.89;100.00;101042.58;1838816;78;26260;-83
2021/01/12 03:57:15;;;;;;;1.90;0.50;;;;;;;9.91;100.00;101039.53;1838937;78;26305;-82
2021/01/12 03:59:45;;;;;;;1.80;0.60;;;;;;;9.88;100.00;101036.74;1838882;78;26287;-82
2021/01/12 04:02:15;;;;;;;1.27;0.57;;;;;;;9.86;100.00;101037.59;1838779;78;26349;-82
2021/01/12 04:04:46;;;;;;;1.20;0.63;;;;;;;9.90;100.00;101032.31;1838905;78;26208;-82
2021/01/12 04:07:16;;;;;;;0.90;0.40;;;;;;;9.91;100.00;101030.66;1838772;78;26315;-82
2021/01/12 04:09:46;;;;;;;2.17;0.43;;;;;;;9.90;100.00;101023.98;1838979;78;26266;-82
2021/01/12 04:12:16;;;;;;;2.17;0.60;;;;;;;9.91;100.00;101018.72;1838886;76;26326;-82
2021/01/12 04:14:46;;;;;;;1.10;0.50;;;;;;;9.96;100.00;101022.90;1838828;78;26253;-82
2021/01/12 04:17:15;;;;;;;1.63;0.60;;;;;;;9.96;100.00;101016.80;1838902;78;26255;-82
2021/01/12 04:19:45;;;;;;;1.03;0.50;;;;;;;9.97;100.00;101012.05;1838922;78;26718;-82
2021/01/12 04:22:15;;;;;;;0.90;0.40;;;;;;;9.97;100.00;101014.82;1838896;78;26233;-81
2021/01/12 04:24:45;;;;;;;1.30;0.60;;;;;;;9.99;100.00;101013.45;1838707;78;26328;-82
2021/01/12 04:27:15;;;;;;;1.40;0.50;;;;;;;10.01;100.00;101013.99;1838810;78;26307;-83
2021/01/12 04:29:45;;;;;;;1.70;0.70;;;;;;;9.98;100.00;101009.56;1838870;78;26809;-83
2021/01/12 04:32:15;;;;;;;0.70;0.40;;;;;;;9.97;100.00;100999.02;1838990;78;26301;-84
2021/01/12 04:34:44;;;;;;;1.70;0.60;;;;;;;10.00;100.00;101001.25;1838758;78;26224;-83
2021/01/12 04:37:14;;;;;;;2.27;0.53;;;;;;;9.99;100.00;101012.63;1838797;78;26226;-83
2021/01/12 04:39:44;;;;;;;0.93;0.73;;;;;;;10.00;100.00;101008.19;1838939;78;26206;-83
2021/01/12 04:42:16;;;;;;;0.60;0.40;;;;;;;10.01;100.00;101005.67;1838848;78;26703;-83
2021/01/12 04:44:45;;;;;;;1.03;0.67;;;;;;;10.02;100.00;101012.05;1838970;78;26229;-83
2021/01/12 04:47:15;;;;;;;1.07;0.50;;;;;;;10.06;100.00;101007.06;1838851;78;26727;-83
2021/01/12 04:49:45;;;;;;;2.00;0.50;;;;;;;10.06;100.00;100999.28;1838921;78;26291;-83
2021/01/12 04:52:15;;;;;;;1.80;0.77;;;;;;;10.08;100.00;101004.57;1838864;78;26256;-83
2021/01/12 04:54:47;;;;;;;1.20;0.70;;;;;;;10.09;100.00;101003.47;1838866;78;26229;-82
2021/01/12 04:57:17;;;;;;;1.47;0.63;;;;;;;10.12;100.00;101012.06;1838891;78;26229;-82
2021/01/12 04:59:47;;;;;;;1.93;0.67;;;;;;;10.14;100.00;101006.25;1838869;78;26725;-82
2021/01/12 05:02:17;;;;;;;1.83;0.67;;;;;;;10.17;100.00;101004.33;1832919;77;932650;-83
2021/01/12 05:04:50;;;;;;;1.23;0.53;;;;;;;10.17;100.00;101005.16;1845589;78;26335;-83
2021/01/12 05:07:21;;;;;;;0.73;0.60;;;;;;;10.21;100.00;101004.05;1845575;78;26669;-83
2021/01/12 05:09:51;;;;;;;1.00;0.60;;;;;;;10.18;100.00;101004.61;1845638;78;26210;-81
2021/01/12 05:12:21;;;;;;;2.90;0.70;;;;;;;10.19;100.00;101006.25;1845582;77;26278;-82
2021/01/12 05:14:54;;;;;;;1.50;0.70;;;;;;;10.27;100.00;101005.72;1845554;78;26234;-82
2021/01/12 05:17:27;;;;;;;3.70;1.00;;;;;;;10.22;100.00;101014.04;1845716;78;26218;-82
2021/01/12 05:20:00;;;;;;;1.70;0.80;;;;;;;10.19;100.00;101012.64;1845675;78;26250;-82
2021/01/12 05:22:32;;;;;;;1.80;0.90;;;;;;;10.22;100.00;101012.10;1845527;78;26211;-82
2021/01/12 05:25:22;;;;;;;0.80;0.70;;;;;;;10.23;100.00;101011.52;1845684;78;26284;-82
2021/01/12 05:27:55;;;;;;;3.07;0.83;;;;;;;10.27;100.00;101010.69;1845652;78;26191;-82
2021/01/12 05:30:28;;;;;;;2.50;1.00;;;;;;;10.26;100.00;101014.59;1845652;78;26198;-82
2021/01/12 05:32:59;;;;;;;2.30;0.77;;;;;;;10.30;100.00;101010.14;1845565;78;26327;-82
2021/01/12 05:35:32;;;;;;;2.93;0.67;;;;;;;10.27;100.00;101009.87;1845483;78;26728;-82
2021/01/12 05:38:07;;;;;;;1.30;0.80;;;;;;;10.30;100.00;101014.86;1845636;78;26299;-83
2021/01/12 05:40:40;;;;;;;3.17;0.80;;;;;;;10.30;100.00;101011.53;1845546;78;26538;-82
2021/01/12 05:43:13;;;;;;;3.33;0.80;;;;;;;10.31;100.00;101015.14;1845548;78;26704;-82
2021/01/12 05:45:44;;;;;;;3.57;1.03;;;;;;;10.28;100.00;101011.52;1845570;78;26658;-82
2021/01/12 05:48:15;;;;;;;2.53;0.80;;;;;;;10.27;100.00;101005.72;1845567;78;26293;-83
2021/01/12 05:50:47;;;;;;;2.83;1.03;;;;;;;10.28;100.00;101014.30;1845821;78;26222;-83
2021/01/12 05:53:19;;;;;;;2.60;1.00;;;;;;;10.31;100.00;101011.78;1845864;78;26247;-81
2021/01/12 05:55:52;;;;;;;2.10;1.17;;;;;;;10.30;100.00;101014.86;1845483;76;26332;-81
2021/01/12 05:58:24;;;;;;;2.77;0.90;;;;;;;10.32;100.00;101015.40;1845675;77;26653;-81
2021/01/12 06:00:56;;;;;;;2.70;1.10;;;;;;;10.32;100.00;101012.07;1813681;77;26228;-81
2021/01/12 06:03:28;;;;;;;2.67;0.93;;;;;;;10.30;100.00;101014.86;1812975;79;26221;-83
2021/01/12 06:05:59;;;;;;;2.80;1.47;;;;;;;10.34;100.00;101011.80;1813471;79;26725;-82
2021/01/12 06:08:30;;;;;;;2.13;1.10;;;;;;;10.33;100.00;101010.13;1843566;78;26254;-82
2021/01/12 06:11:02;;;;;;;3.30;1.50;;;;;;;10.31;100.00;101011.78;1845836;78;26234;-83
2021/01/12 06:13:35;;;;;;;2.40;1.33;;;;;;;10.33;100.00;101019.30;1846109;76;26277;-83
2021/01/12 06:16:08;;;;;;;2.70;1.30;;;;;;;10.35;100.00;101016.25;1812443;78;26753;-83
2021/01/12 06:18:41;;;;;;;1.80;1.00;;;;;;;10.33;100.00;101024.84;1809372;78;26360;-81
2021/01/12 06:21:17;;;;;;;3.30;1.40;;;;;;;10.34;100.00;101022.91;1823085;78;26209;-82
2021/01/12 06:23:51;;;;;;;2.97;1.40;;;;;;;10.36;100.00;101024.28;1820385;79;26313;-82
2021/01/12 06:26:22;;;;;;;3.93;1.60;;;;;;;10.39;100.00;101025.69;1820670;79;26674;-81
2021/01/12 06:28:54;;;;;;;2.43;1.60;;;;;;;10.36;100.00;101027.61;1820379;79;26196;-81
2021/01/12 06:31:24;;;;;;;3.90;1.37;;;;;;;10.34;100.00;101027.91;1820361;79;26636;-82
2021/01/12 06:33:59;;;;;;;4.40;1.37;;;;;;;10.35;100.00;101030.13;1820373;79;26286;-82
2021/01/12 06:36:31;;;;;;;3.57;1.30;;;;;;;10.35;100.00;101029.58;1820374;79;26251;-82
2021/01/12 06:39:03;;;;;;;4.90;1.37;;;;;;;10.27;100.00;101014.84;1820398;79;26643;-80
2021/01/12 06:41:36;;;;;;;4.90;1.70;;;;;;;10.36;100.00;101034.00;1820367;79;26215;-80
2021/01/12 06:44:10;;;;;;;3.60;1.20;;;;;;;10.36;100.00;101028.45;1820342;79;26264;-80
2021/01/12 06:46:42;;;;;;;5.47;1.60;;;;;;;10.37;100.00;101032.89;1819223;79;26318;-81
2021/01/12 06:49:12;;;;;;;3.70;1.27;;;;;;;10.38;100.00;101030.40;1820308;79;26341;-80
2021/01/12 06:51:41;;;;;;;3.80;1.30;;;;;;;10.37;100.00;101033.45;1820338;79;26256;-81
2021/01/12 06:54:15;;;;;;;4.90;1.60;;;;;;;10.41;100.00;101034.00;1820414;79;26205;-81
2021/01/12 06:56:46;;;;;;;3.23;1.20;;;;;;;10.38;100.00;101040.13;1820428;79;26643;-83
2021/01/12 06:59:16;;;;;;;4.30;1.47;;;;;;;10.37;100.00;101044.55;1820460;79;26278;-80
2021/01/12 07:01:52;;;;;;;2.97;1.60;;;;;;;10.38;100.00;101049.84;1820364;79;26721;-81
2021/01/12 07:04:24;;;;;;;4.13;1.63;;;;;;;10.43;100.00;101073.44;1820378;79;26186;-78
2021/01/12 07:06:58;;;;;;;3.97;1.23;;;;;;;10.49;100.00;101098.69;1820344;79;26654;-85
2021/01/12 07:09:29;;;;;;;2.73;0.97;;;;;;;10.41;100.00;101107.59;1820398;79;26214;-84
2021/01/12 07:12:08;;;;;;;1.40;0.93;;;;;;;10.18;100.00;101111.48;1820553;79;26286;-84
2021/01/12 07:14:47;;;;;;;1.43;0.60;;;;;;;10.03;100.00;101120.02;1820558;76;26260;-79
2021/01/12 07:17:29;;;;;;;0.90;0.70;;;;;;;9.93;100.00;101129.70;1820420;79;26766;-81
2021/01/12 07:20:17;;;;;;;3.07;0.70;;;;;;;9.87;100.00;101121.66;1814009;79;26205;-82
2021/01/12 07:23:01;;;;;;;0.60;0.40;;;;;;;9.82;100.00;101129.41;1811479;79;26222;-84
2021/01/12 07:25:32;;;;;;;2.87;0.80;;;;;;;9.74;100.00;101130.50;1814166;79;26249;-85
2021/01/12 07:28:06;;;;;;;0.73;0.60;;;;;;;9.72;100.00;101127.98;1811495;79;26237;-84
2021/01/12 07:30:39;;;;;;;1.90;0.50;;;;;;;9.70;100.00;101134.38;1817275;79;26223;-84
2021/01/12 07:33:11;;;;;;;2.60;0.70;;;;;;;9.67;100.00;101136.28;1819198;79;26297;-83
2021/01/12 07:35:41;;;;;;;3.10;0.73;;;;;;;9.67;100.00;101137.67;1818383;79;26763;-83
2021/01/12 07:38:12;;;;;;;1.20;0.60;;;;;;;9.67;100.00;101143.80;1819201;79;26280;-82
2021/01/12 07:40:42;;;;;;;3.70;0.50;;;;;;;9.67;100.00;101148.77;1819259;79;26223;-81
2021/01/12 07:43:17;;;;;;;1.93;0.73;;;;;;;9.63;100.00;101146.26;1819115;79;26672;-80
2021/01/12 07:45:49;;;;;;;1.87;0.43;;;;;;;9.63;100.00;101156.55;1819121;79;26285;-79
2021/01/12 07:48:19;;;;;;;2.53;0.70;;;;;;;9.60;100.00;101160.13;1819265;79;26227;-80
2021/01/12 07:50:50;;;;;;;4.67;0.80;;;;;;;9.58;100.00;101165.67;1819146;79;26340;-79
2021/01/12 07:53:23;;;;;;;2.30;0.60;;;;;;;9.62;100.00;101167.35;1819161;79;26229;-79
2021/01/12 07:55:54;;;;;;;2.20;0.50;;;;;;;9.61;100.00;101177.61;1819097;79;26231;-80
2021/01/12 07:58:24;;;;;;;1.03;0.40;;;;;;;9.60;100.00;101178.70;1819155;79;26299;-80
2021/01/12 08:00:54;;;;;;;2.53;0.50;;;;;;;9.57;100.00;101172.32;1821522;79;26317;-80
2021/01/12 08:03:27;;;;;;;4.00;0.60;;;;;;;9.58;100.00;101181.73;1819186;79;26227;-81
2021/01/12 08:06:00;;;;;;;0.80;0.60;;;;;;;9.58;100.00;101172.61;1819142;79;26297;-80
2021/01/12 08:08:32;;;;;;;1.93;0.40;;;;;;;9.56;100.00;101174.80;1819157;79;26239;-81
2021/01/12 08:11:02;;;;;;;1.83;0.50;;;;;;;9.56;100.00;101174.80;1819177;79;26219;-83
2021/01/12 08:13:32;;;;;;;0.70;0.60;;;;;;;9.56;100.00;101187.28;1819139;79;26229;-77
2021/01/12 08:16:09;;;;;;;0.47;0.40;;;;;;;9.56;100.00;101191.45;1819078;79;26242;-80
2021/01/12 08:18:39;;;;;;;0.80;0.40;;;;;;;9.55;100.00;101193.93;1819119;79;26714;-79
2021/01/12 08:21:09;;;;;;;0.80;0.50;;;;;;;9.56;100.00;101199.77;1819060;79;26219;-80
2021/01/12 08:23:38;;;;;;;1.97;0.97;;;;;;;9.58;100.00;101198.95;1819189;79;26339;-81
2021/01/12 08:26:14;;;;;;;1.67;0.50;;;;;;;9.57;100.00;101209.21;1819056;79;26207;-82
2021/01/12 08:28:47;;;;;;;1.17;0.50;;;;;;;9.55;100.00;101210.02;1819338;79;26215;-81
2021/01/12 08:31:20;;;;;;;1.13;0.60;;;;;;;9.57;100.00;101213.92;1819160;79;26740;-80
2021/01/12 08:33:53;;;;;;;1.30;0.63;;;;;;;9.54;100.00;101226.95;1819370;79;26211;-80
2021/01/12 08:36:26;;;;;;;2.70;0.80;;;;;;;9.58;100.00;101230.84;1819207;78;26247;-78
2021/01/12 08:38:57;;;;;;;1.37;1.00;;;;;;;9.59;100.00;101229.72;1819233;79;26207;-78
2021/01/12 08:41:32;;;;;;;0.50;0.50;;;;;;;9.62;100.00;101240.84;1819018;79;26231;-79
2021/01/12 08:44:02;;;;;;;0.60;0.57;;;;;;;9.60;100.00;101240.56;1818977;79;26728;-80
2021/01/12 08:46:34;;;;;;;2.20;0.80;;;;;;;9.64;100.00;101248.33;1819258;79;26262;-76
2021/01/12 08:49:05;;;;;;;2.23;0.80;;;;;;;9.63;100.00;101246.69;1819070;79;26297;-78
2021/01/12 08:51:36;;;;;;;3.30;1.03;;;;;;;9.59;100.00;101251.91;1819037;79;26277;-78
2021/01/12 08:54:07;;;;;;;4.17;1.03;;;;;;;9.62;100.00;101256.94;1819211;79;26211;-82
2021/01/12 08:56:36;;;;;;;2.00;0.87;;;;;;;9.63;100.00;101262.75;1818999;79;26689;-80
2021/01/12 08:59:08;;;;;;;5.53;2.23;;;;;;;9.66;100.00;101265.00;1819228;79;26211;-79
2021/01/12 09:01:42;;;;;;;5.43;1.80;;;;;;;9.67;100.00;101263.87;1819160;79;26223;-80
2021/01/12 09:04:12;;;;;;;4.07;1.70;;;;;;;9.66;100.00;101273.33;1819103;79;26320;-78
2021/01/12 09:06:42;;;;;;;5.10;1.50;;;;;;;9.65;100.00;101277.20;1819126;79;26718;-80
2021/01/12 09:09:13;;;;;;;1.53;0.90;;;;;;;9.63;100.00;101276.61;1819226;79;26274;-81
2021/01/12 09:11:48;;;;;;;2.70;1.20;;;;;;;9.63;100.00;101284.13;1819250;79;26663;-79
2021/01/12 09:14:20;;;;;;;1.23;1.07;;;;;;;9.67;100.00;101284.68;1819064;76;26227;-79
2021/01/12 09:16:56;;;;;;;1.57;1.00;;;;;;;9.67;100.00;101293.58;1819180;79;26779;-84
2021/01/12 09:19:28;;;;;;;1.10;1.00;;;;;;;9.69;100.00;101299.13;1819143;79;26662;-82
2021/01/12 09:22:07;;;;;;;1.60;1.10;;;;;;;9.70;100.00;101309.68;1818536;79;26666;-80
2021/01/12 09:24:40;;;;;;;2.03;1.10;;;;;;;9.69;100.00;101318.55;1819104;79;26239;-79
2021/01/12 09:27:10;;;;;;;3.53;1.50;;;;;;;9.71;100.00;101323.30;1819076;79;26304;-81
2021/01/12 09:29:40;;;;;;;2.43;1.27;;;;;;;9.74;100.00;101325.52;1819145;79;26239;-83
2021/01/12 09:32:11;;;;;;;1.90;1.30;;;;;;;9.74;100.00;101331.62;1819159;79;26232;-78
2021/01/12 09:34:43;;;;;;;2.03;1.57;;;;;;;9.71;100.00;101330.78;1819082;79;26277;-83
2021/01/12 09:37:17;;;;;;;2.10;1.40;;;;;;;9.65;100.00;101333.22;1819052;79;26755;-77
2021/01/12 09:39:52;;;;;;;1.30;1.20;;;;;;;9.68;100.00;101338.22;1819201;79;26203;-80
2021/01/12 09:42:27;;;;;;;1.77;1.50;;;;;;;9.71;100.00;101339.09;1819128;79;26262;-80
2021/01/12 09:44:58;;;;;;;2.13;1.30;;;;;;;9.73;100.00;101346.58;1819154;79;26226;-78
2021/01/12 09:47:28;;;;;;;1.90;1.40;;;;;;;9.71;100.00;101357.97;1819196;79;26293;-77
2021/01/12 09:49:58;;;;;;;3.00;1.40;;;;;;;9.74;100.00;101356.59;1819188;79;26333;-79
2021/01/12 09:52:29;;;;;;;2.03;1.40;;;;;;;9.79;100.00;101357.47;1819319;79;26246;-79
2021/01/12 09:54:59;;;;;;;1.50;1.37;;;;;;;9.74;100.00;101363.52;1819314;79;26331;-79
2021/01/12 09:57:29;;;;;;;2.43;2.23;;;;;;;9.79;100.00;101365.78;1819153;78;26736;-79
2021/01/12 09:59:59;;;;;;;2.40;2.17;;;;;;;9.84;100.00;101366.38;1819252;79;26654;-79
2021/01/12 10:02:33;;;;;;;3.00;1.97;;;;;;;9.85;100.00;101381.89;1819181;79;26289;-79
2021/01/12 10:05:02;;;;;;;3.97;2.57;;;;;;;9.88;100.00;101386.93;1819216;79;26288;-79
2021/01/12 10:07:32;;;;;;;2.23;2.03;;;;;;;9.90;100.00;101385.55;1819220;79;26752;-79
2021/01/12 10:10:02;;;;;;;2.53;2.30;;;;;;;9.90;100.00;101392.48;1819234;79;26224;-79
2021/01/12 10:12:32;;;;;;;2.30;2.10;;;;;;;9.92;100.00;101389.45;1819176;79;26309;-79
2021/01/12 10:15:02;;;;;;;2.27;2.07;;;;;;;9.92;100.00;101397.77;1819215;77;26289;-79
2021/01/12 10:17:32;;;;;;;3.73;2.43;;;;;;;9.94;100.00;101393.62;1819308;79;26310;-80
2021/01/12 10:20:03;;;;;;;3.13;2.33;;;;;;;9.95;100.00;101402.78;1819244;79;26219;-77
2021/01/12 10:22:33;;;;;;;3.90;2.23;;;;;;;9.95;100.00;101406.40;1819041;79;26266;-78
2021/01/12 10:25:03;;;;;;;3.00;2.20;;;;;;;9.96;100.00;101401.69;1819238;79;27304;-77
2021/01/12 10:27:38;;;;;;;3.10;2.47;;;;;;;9.95;100.00;101410.56;1819140;79;26336;-79
2021/01/12 10:30:10;;;;;;;3.93;2.77;;;;;;;9.93;100.00;101414.69;1819200;79;26712;-77
2021/01/12 10:32:41;;;;;;;4.17;2.90;;;;;;;9.92;100.00;101411.65;1819198;79;26211;-77
2021/01/12 10:35:12;;;;;;;3.40;3.10;;;;;;;9.90;100.00;101418.00;1819344;79;26286;-76
2021/01/12 10:37:44;;;;;;;4.33;2.77;;;;;;;9.90;100.00;101420.23;1819167;79;26230;-76
2021/01/12 10:40:17;;;;;;;3.47;2.70;;;;;;;9.89;100.00;101420.48;1819246;79;26270;-75
2021/01/12 10:42:48;;;;;;;3.27;2.97;;;;;;;9.89;100.00;101417.16;1819103;79;26230;-77
2021/01/12 10:45:18;;;;;;;3.17;2.70;;;;;;;9.90;100.00;101425.78;1819154;79;26664;-78
2021/01/12 10:47:48;;;;;;;4.50;3.63;;;;;;;9.86;100.00;101421.03;1819131;79;26671;-78
2021/01/12 10:50:20;;;;;;;4.40;3.53;;;;;;;9.85;100.00;101424.35;1819348;79;26684;-79
2021/01/12 10:52:50;;;;;;;4.20;3.30;;;;;;;9.86;100.00;101430.74;1819168;79;26316;-77
2021/01/12 10:55:22;;;;;;;3.53;3.20;;;;;;;9.84;100.00;101433.77;1819238;79;26235;-77
2021/01/12 10:57:52;;;;;;;3.67;3.27;;;;;;;9.81;100.00;101439.02;1819111;79;26231;-78
2021/01/12 11:00:26;;;;;;;3.60;3.00;;;;;;;9.82;100.00;101435.16;1819181;79;26223;-79
2021/01/12 11:02:57;;;;;;;5.50;3.53;;;;;;;9.87;100.00;101436.58;1819071;79;26227;-79
2021/01/12 11:05:27;;;;;;;4.87;3.30;;;;;;;9.85;100.00;101440.16;1819202;79;26215;-80
2021/01/12 11:07:57;;;;;;;3.47;3.10;;;;;;;9.82;100.00;101442.93;1825179;79;26210;-78
2021/01/12 11:10:27;;;;;;;4.20;3.60;;;;;;;9.82;100.00;101449.86;1820269;78;26300;-78
2021/01/12 11:12:59;;;;;;;4.73;3.57;;;;;;;9.79;100.00;101452.34;1819105;79;26227;-80
2021/01/12 11:15:29;;;;;;;5.90;3.40;;;;;;;9.80;100.00;101452.05;1819251;79;26337;-79
2021/01/12 11:17:59;;;;;;;4.07;3.67;;;;;;;9.79;100.00;101455.95;1819086;77;26275;-80
2021/01/12 11:20:32;;;;;;;5.03;4.00;;;;;;;9.82;100.00;101460.96;1819135;79;26296;-79
2021/01/12 11:23:02;;;;;;;4.53;3.47;;;;;;;9.82;100.00;101463.73;1819097;79;26768;-80
2021/01/12 11:25:35;;;;;;;4.43;3.53;;;;;;;9.70;100.00;101465.02;1819239;79;26721;-80
2021/01/12 11:28:06;;;;;;;4.90;4.30;;;;;;;9.68;100.00;101463.89;1819192;79;26235;-80
2021/01/12 11:30:36;;;;;;;8.07;4.80;;;;;;;9.82;100.00;101468.45;1819272;79;26228;-81
2021/01/12 11:33:10;;;;;;;6.43;4.80;;;;;;;9.90;100.00;101467.41;1819204;79;26215;-82
2021/01/12 11:35:41;;;;;;;5.20;4.20;;;;;;;10.02;100.00;101479.70;1819144;79;26293;-82
2021/01/12 11:38:11;;;;;;;4.73;4.10;;;;;;;10.14;100.00;101474.78;1819059;79;26226;-82
2021/01/12 11:40:41;;;;;;;7.93;6.50;;;;;;;10.15;100.00;101480.66;1819240;79;26274;-82
2021/01/12 11:43:11;;;;;;;7.13;6.43;;;;;;;9.86;100.00;101490.40;1819200;79;26219;-82
2021/01/12 11:45:41;;;;;;;8.37;7.57;;;;;;;9.54;100.00;101487.06;1819184;79;26281;-82
2021/01/12 11:48:12;;;;;;;7.90;6.90;;;;;;;9.38;100.00;101487.17;1819046;79;26217;-82
2021/01/12 11:50:42;;;;;;;7.03;6.33;;;;;;;9.30;100.00;101490.42;1819141;79;26639;-82